Campton, New Hampshire
Current Conditions -  °F | °C
As of 6:15 PM on Wednesday 26 Nov 2014 (Local Time) from K1P1 Reporting Station
Moderate Snow Moderate Snow  
Wind Chill: 32°   Ceiling: 300
Heat Index: 32°   Visibility: 0.75mi
Dew Point: 32°   Wind: 0mph
Humidity: 100%   Direction: NA
Pressure: 29.98"   Gusts: NA
Location:  43.86°N, 71.65°W
Report Text: K1P1 262315Z AUTO 00000KT 3/4SM SN OVC003 00/00 A2998 RMK AO2 P0004 T00000000
Loading
Personal Weather Stations






























Interactive Weather Map New forecast layout! Learn more

10-Day Weather Forecast

Advertisements
Track Severe Weather on mobile